ADDS METAR Data INFO
IDs: Format: Raw Decoded Include TAF

Data at: 1338 UTC 23 Jun 2018

KVCB 231253Z AUTO 35009KT 10SM CLR 27/06 A2977 RMK AO2 SLP080 T02720056
KVCB 231153Z AUTO 36009KT 10SM CLR 28/06 A2977 RMK AO2 SLP077 T02830061 10294 20183 53001
KVCB 231053Z AUTO 36008KT 10SM CLR 29/06 A2975 RMK AO2 SLP073 T02940056
KVCB 230953Z AUTO 00000KT 10SM CLR 18/11 A2976 RMK AO2 SLP075 T01830106
KVCB 230853Z AUTO 00000KT 10SM CLR 20/11 A2976 RMK AO2 SLP076 T02000111 55001
KVCB 230753Z AUTO 00000KT 10SM CLR 21/11 A2975 RMK AO2 SLP071 T02110106 403890133
KVCB 230653Z AUTO 21004KT 10SM CLR 27/10 A2975 RMK AO2 SLP071 T02670100
KVCB 230553Z AUTO 00000KT 10SM CLR 23/10 A2976 RMK AO2 SLP077 T02330100 10389 20233 50002
KVCB 230453Z AUTO 25003KT 10SM CLR 27/09 A2977 RMK AO2 SLP078 T02720094
KVCB 230353Z AUTO 24003KT 10SM CLR 32/08 A2976 RMK AO2 SLP074 T03170078
KVCB 230253Z AUTO 23007KT 10SM CLR 34/07 A2976 RMK AO2 SLP075 T03440072 56013
KVCB 230153Z AUTO 23011KT 10SM CLR 37/08 A2976 RMK AO2 SLP076 T03670083
KVCB 230053Z AUTO 25010KT 10SM CLR 38/11 A2977 RMK AO2 SLP079 T03780111
KVCB 222353Z AUTO 21008KT 10SM CLR 38/12 A2979 RMK AO2 SLP087 T03780117 10383 20311 57026
KVCB 222253Z AUTO 22006KT 10SM CLR 38/13 A2982 RMK AO2 SLP096 T03780128
KVCB 222153Z AUTO VRB05KT 10SM CLR 37/13 A2984 RMK AO2 SLP104 T03720128
KVCB 222053Z AUTO 20005KT 10SM CLR 36/13 A2987 RMK AO2 SLP113 T03560128 58020
KVCB 221953Z AUTO 00000KT 10SM CLR 36/12 A2989 RMK AO2 SLP121 T03560122
KVCB 221853Z AUTO VRB04KT 10SM CLR 33/13 A2991 RMK AO2 SLP127 T03330128
KVCB 221753Z AUTO VRB06KT 10SM CLR 31/13 A2993 RMK AO2 SLP133 T03110128 10317 20133 58006
KVCB 221653Z AUTO VRB04KT 10SM CLR 29/16 A2994 RMK AO2 SLP137 T02890156
KVCB 221553Z AUTO 05003KT 10SM CLR 26/14 A2995 RMK AO2 SLP140 T02560139
KVCB 221453Z AUTO 00000KT 10SM CLR 22/13 A2995 RMK AO2 SLP139 T02220133 53014
KVCB 221353Z AUTO 00000KT 10SM CLR 19/13 A2993 RMK AO2 SLP134 T01940128
KVCB 221253Z AUTO 00000KT 10SM CLR 14/11 A2991 RMK AO2 SLP127 T01440106
KVCB 221232Z AUTO 00000KT 10SM FEW003 14/11 A2991 RMK AO2 T01440106
KVCB 221153Z AUTO 00000KT 10SM CLR 14/11 A2991 RMK AO2 SLP125 T01440106 10228 20139 53005
KVCB 221053Z AUTO 00000KT 10SM CLR 16/11 A2990 RMK AO2 SLP124 T01560106
KVCB 220953Z AUTO 00000KT 10SM CLR 19/11 A2989 RMK AO2 SLP119 T01890111
KVCB 220853Z AUTO 19003KT 10SM CLR 21/11 A2989 RMK AO2 SLP120 T02060111 58004
KVCB 220753Z AUTO 22005KT 10SM CLR 22/11 A2990 RMK AO2 SLP121 T02170106 403390106
KVCB 220653Z AUTO 20004KT 10SM CLR 22/11 A2990 RMK AO2 SLP123 T02220111
KVCB 220553Z AUTO 00000KT 10SM CLR 20/11 A2990 RMK AO2 SLP124 T02000106 10339 20194 52006
KVCB 220453Z AUTO 00000KT 10SM CLR 21/10 A2990 RMK AO2 SLP123 T02110100
KVCB 220353Z AUTO 22003KT 10SM CLR 28/11 A2989 RMK AO2 SLP119 T02780106
KVCB 220253Z AUTO 20006KT 10SM CLR 31/12 A2989 RMK AO2 SLP118 T03110122 56007
KVCB 220153Z AUTO 21006KT 10SM CLR 33/13 A2989 RMK AO2 SLP118 T03280128